createdAt,value
2022-08-16T00:00:38.566Z,67.96
2022-08-16T00:03:13.501Z,67.79
2022-08-16T00:05:48.560Z,67.62
2022-08-16T00:08:35.804Z,67.46
2022-08-16T00:11:08.076Z,67.22
2022-08-16T00:13:53.432Z,67.13
2022-08-16T00:17:06.638Z,67.00
2022-08-16T00:19:22.546Z,67.29
2022-08-16T00:21:55.232Z,67.34
2022-08-16T00:24:32.457Z,67.29
2022-08-16T00:27:04.288Z,67.41
2022-08-16T00:29:35.125Z,67.51
2022-08-16T00:32:07.586Z,67.42
2022-08-16T00:34:44.139Z,67.41
2022-08-16T00:37:24.555Z,67.86
2022-08-16T00:39:57.391Z,68.14
2022-08-16T00:42:31.714Z,68.32
2022-08-16T00:45:13.349Z,68.25
2022-08-16T00:47:49.141Z,68.45
2022-08-16T00:50:35.988Z,68.83
2022-08-16T00:53:09.416Z,68.68
2022-08-16T00:55:46.568Z,68.89
2022-08-16T00:58:32.276Z,68.96
2022-08-16T01:01:10.379Z,69.06
2022-08-16T01:03:45.459Z,68.91
2022-08-16T01:06:40.497Z,69.21
2022-08-16T01:09:15.362Z,69.30
2022-08-16T01:11:54.001Z,69.29
2022-08-16T01:14:30.079Z,69.15
2022-08-16T01:17:04.482Z,69.30
2022-08-16T01:19:44.564Z,69.32
2022-08-16T01:22:47.684Z,69.28
2022-08-16T01:25:21.618Z,69.28
2022-08-16T01:27:56.268Z,69.25
2022-08-16T01:30:30.707Z,69.14
2022-08-16T01:33:15.581Z,69.31
2022-08-16T01:35:54.066Z,69.54
2022-08-16T01:38:34.510Z,69.36
2022-08-16T01:41:10.158Z,69.37
2022-08-16T01:43:45.310Z,69.39
2022-08-16T01:46:39.388Z,69.59
2022-08-16T01:49:22.515Z,69.61
2022-08-16T01:51:58.744Z,69.53
2022-08-16T01:54:39.856Z,69.61
2022-08-16T01:57:11.645Z,69.58
2022-08-16T01:59:45.600Z,69.66
2022-08-16T02:02:28.398Z,69.79
2022-08-16T02:05:02.644Z,69.80
2022-08-16T02:07:35.892Z,69.79
2022-08-16T02:10:10.203Z,69.83
2022-08-16T02:12:51.297Z,69.89
2022-08-16T02:15:29.179Z,70.25
2022-08-16T02:18:05.490Z,70.18
2022-08-16T02:20:42.553Z,70.29
2022-08-16T02:23:19.431Z,70.41
2022-08-16T02:25:53.518Z,70.50
2022-08-16T02:28:28.591Z,70.60
2022-08-16T02:31:05.265Z,70.73
2022-08-16T02:33:44.111Z,70.88
2022-08-16T02:36:47.367Z,71.01
2022-08-16T02:39:15.478Z,71.27
2022-08-16T02:41:53.388Z,71.34
2022-08-16T02:44:26.839Z,71.42
2022-08-16T02:47:02.496Z,71.47
2022-08-16T02:50:01.447Z,71.46
2022-08-16T02:52:29.427Z,71.73
2022-08-16T02:55:09.511Z,71.85
2022-08-16T02:57:42.543Z,71.88
2022-08-16T03:00:34.615Z,71.69
2022-08-16T03:03:10.629Z,72.16
2022-08-16T03:05:43.161Z,72.35
2022-08-16T03:08:50.967Z,72.34
2022-08-16T03:11:16.609Z,72.12
2022-08-16T03:13:56.864Z,72.32
2022-08-16T03:16:36.513Z,72.56
2022-08-16T03:19:17.563Z,72.57
2022-08-16T03:21:51.826Z,72.42
2022-08-16T03:24:28.690Z,72.71
2022-08-16T03:27:06.887Z,72.82
2022-08-16T03:29:54.537Z,72.74
2022-08-16T03:32:28.353Z,72.66
2022-08-16T03:35:01.599Z,72.95
2022-08-16T03:38:01.815Z,73.14
2022-08-16T03:40:37.747Z,73.06
2022-08-16T03:43:20.688Z,73.18
2022-08-16T03:45:59.688Z,73.35
2022-08-16T03:48:41.690Z,73.35
2022-08-16T03:51:25.432Z,73.59
2022-08-16T03:54:01.353Z,73.77
2022-08-16T03:56:37.501Z,73.99
2022-08-16T04:06:49.462Z,74.51
2022-08-16T04:09:22.870Z,74.49
2022-08-16T04:11:54.344Z,74.42
2022-08-16T04:14:33.229Z,74.43
2022-08-16T04:17:05.563Z,74.54
2022-08-16T04:19:45.411Z,74.61
2022-08-16T04:22:17.568Z,74.58
2022-08-16T04:24:55.067Z,74.69
2022-08-16T04:27:28.940Z,74.55
2022-08-16T04:30:03.764Z,74.67
2022-08-16T04:32:38.827Z,74.56
2022-08-16T04:35:16.481Z,74.62
2022-08-16T04:37:48.386Z,74.75
2022-08-16T04:40:28.404Z,74.93
2022-08-16T04:43:01.693Z,74.71
2022-08-16T04:45:36.084Z,74.97
2022-08-16T04:48:22.003Z,75.03
2022-08-16T04:51:02.073Z,74.96
2022-08-16T04:53:47.675Z,75.19
2022-08-16T04:56:19.238Z,74.76
2022-08-16T04:58:49.771Z,73.80
2022-08-16T05:01:21.621Z,72.71
2022-08-16T05:04:00.378Z,71.64
2022-08-16T05:06:42.255Z,70.34
2022-08-16T05:09:23.377Z,69.30
2022-08-16T05:11:57.418Z,68.25
2022-08-16T05:14:46.148Z,66.99
2022-08-16T05:17:24.726Z,65.22
2022-08-16T05:19:57.595Z,64.14
2022-08-16T05:22:30.469Z,62.84
2022-08-16T05:25:08.872Z,61.92
2022-08-16T05:27:43.100Z,60.31
2022-08-16T05:30:34.485Z,59.10
2022-08-16T05:33:16.159Z,58.40
2022-08-16T05:35:55.634Z,57.80
2022-08-16T05:38:48.353Z,56.90
2022-08-16T05:41:19.521Z,56.37
2022-08-16T05:43:50.060Z,55.75
2022-08-16T05:46:31.023Z,55.24
2022-08-16T05:49:11.702Z,54.51
2022-08-16T05:51:45.949Z,54.09
2022-08-16T05:54:20.250Z,53.13
2022-08-16T05:56:56.818Z,52.35
2022-08-16T05:59:27.959Z,51.04
2022-08-16T06:01:59.785Z,50.59
2022-08-16T06:04:37.309Z,51.20
2022-08-16T06:07:24.827Z,50.74
2022-08-16T06:10:11.859Z,50.46
2022-08-16T06:12:42.732Z,49.59
2022-08-16T06:15:16.598Z,48.96
2022-08-16T06:17:48.280Z,48.75
2022-08-16T06:20:35.535Z,48.07
2022-08-16T06:23:20.687Z,47.21
2022-08-16T06:26:11.752Z,46.89
2022-08-16T06:28:47.183Z,47.15
2022-08-16T06:31:24.704Z,46.57
2022-08-16T06:33:55.927Z,45.78
2022-08-16T06:36:27.194Z,45.80
2022-08-16T06:39:05.051Z,45.39
2022-08-16T06:41:49.272Z,44.22
2022-08-16T06:44:35.201Z,44.36
2022-08-16T06:47:05.913Z,44.88
2022-08-16T06:49:36.302Z,45.28
2022-08-16T06:52:14.032Z,45.00
2022-08-16T06:54:59.340Z,44.56
2022-08-16T06:57:29.833Z,43.35
2022-08-16T07:00:00.319Z,43.51
2022-08-16T07:02:51.335Z,43.63
2022-08-16T07:05:27.021Z,43.86
2022-08-16T07:08:17.413Z,44.04
2022-08-16T07:10:49.806Z,43.14
2022-08-16T07:13:43.652Z,43.23
2022-08-16T07:16:20.463Z,43.16
2022-08-16T07:19:01.314Z,42.88
2022-08-16T07:21:46.660Z,42.97
2022-08-16T07:24:31.398Z,42.89
2022-08-16T07:27:12.565Z,42.87
2022-08-16T07:29:44.241Z,42.72
2022-08-16T07:32:19.439Z,42.77
2022-08-16T07:35:01.403Z,42.96
2022-08-16T07:37:33.147Z,43.33
2022-08-16T07:40:20.902Z,43.46
2022-08-16T07:43:05.236Z,43.07
2022-08-16T07:45:36.661Z,42.75
2022-08-16T07:48:11.844Z,41.70
2022-08-16T07:50:57.263Z,41.98
2022-08-16T07:53:31.273Z,41.95
2022-08-16T07:56:04.421Z,41.69
2022-08-16T07:58:40.549Z,41.45
2022-08-16T08:01:16.490Z,41.59
2022-08-16T08:03:53.892Z,41.92
2022-08-16T08:06:30.227Z,41.80
2022-08-16T08:09:06.649Z,41.80
2022-08-16T08:11:37.647Z,41.28
2022-08-16T08:14:10.715Z,40.83
2022-08-16T08:17:01.863Z,40.77
2022-08-16T08:19:34.687Z,40.39
2022-08-16T08:22:06.728Z,40.26
2022-08-16T08:24:43.992Z,40.05
2022-08-16T08:27:22.959Z,40.41
2022-08-16T08:30:49.839Z,40.02
2022-08-16T08:32:59.867Z,39.96
2022-08-16T08:35:34.503Z,40.24
2022-08-16T08:38:04.028Z,40.21
2022-08-16T08:40:37.414Z,39.80
2022-08-16T08:43:18.231Z,39.38
2022-08-16T08:45:54.430Z,39.22
2022-08-16T08:48:34.189Z,39.11
2022-08-16T08:51:18.825Z,38.77
2022-08-16T08:53:58.033Z,38.51
2022-08-16T08:56:35.273Z,38.60
2022-08-16T08:59:29.314Z,38.42
2022-08-16T09:02:00.965Z,38.32
2022-08-16T09:04:41.763Z,37.90
2022-08-16T09:07:19.730Z,37.35
2022-08-16T09:10:06.279Z,36.74
2022-08-16T09:12:41.186Z,36.54
2022-08-16T09:15:24.828Z,36.94
2022-08-16T09:18:01.103Z,36.05
2022-08-16T09:20:59.294Z,35.80
2022-08-16T09:23:36.471Z,35.63
2022-08-16T09:26:43.991Z,35.71
2022-08-16T09:29:14.555Z,35.12
2022-08-16T09:31:53.620Z,35.15
2022-08-16T09:34:24.527Z,35.17
2022-08-16T09:36:58.104Z,34.68
2022-08-16T09:39:41.482Z,35.19
2022-08-16T09:42:11.338Z,34.72
2022-08-16T09:45:11.952Z,34.39
2022-08-16T09:47:57.039Z,34.65
2022-08-16T09:50:36.927Z,34.47
2022-08-16T09:53:16.829Z,34.93
2022-08-16T09:55:50.064Z,34.91
2022-08-16T09:58:41.600Z,34.97
2022-08-16T10:01:14.680Z,34.04
2022-08-16T10:04:02.084Z,33.92
2022-08-16T10:06:34.416Z,34.18
2022-08-16T10:09:08.348Z,33.84
2022-08-16T10:12:11.836Z,34.04
2022-08-16T10:14:51.955Z,34.40
2022-08-16T10:17:25.158Z,33.74
2022-08-16T10:19:56.247Z,33.25
2022-08-16T10:22:27.050Z,33.23
2022-08-16T10:24:59.984Z,33.27
2022-08-16T10:27:47.378Z,32.67
2022-08-16T10:30:26.085Z,32.78
2022-08-16T10:32:59.397Z,32.47
2022-08-16T10:35:32.830Z,31.72
2022-08-16T10:38:06.733Z,32.03
2022-08-16T10:40:40.997Z,31.54
2022-08-16T10:43:18.521Z,31.18
2022-08-16T10:46:00.511Z,30.80
2022-08-16T10:48:32.058Z,30.80
2022-08-16T10:51:03.167Z,30.21
2022-08-16T10:53:37.726Z,30.34
2022-08-16T10:56:52.141Z,29.82
2022-08-16T11:07:55.197Z,28.39
2022-08-16T11:16:26.850Z,27.14
2022-08-16T11:19:05.591Z,26.67
2022-08-16T11:24:42.736Z,26.12
2022-08-16T11:27:19.873Z,25.26
2022-08-16T11:29:54.892Z,25.02
2022-08-16T11:32:32.117Z,24.90
2022-08-16T11:35:10.762Z,24.26
2022-08-16T11:40:46.882Z,24.65
2022-08-16T11:43:26.533Z,24.60
2022-08-16T11:46:01.347Z,24.34
2022-08-16T11:48:51.888Z,23.75
2022-08-16T11:51:25.096Z,23.88
2022-08-16T11:53:56.342Z,23.54
2022-08-16T11:56:51.769Z,23.49
2022-08-16T11:59:24.212Z,23.60
2022-08-16T12:02:30.566Z,23.59
2022-08-16T12:04:54.314Z,23.89
2022-08-16T12:07:28.447Z,25.32
2022-08-16T12:10:01.289Z,26.25
2022-08-16T12:12:40.355Z,26.62
2022-08-16T12:15:16.197Z,26.51
2022-08-16T12:17:51.420Z,25.43
2022-08-16T12:20:27.993Z,24.66
2022-08-16T12:23:02.925Z,24.05
2022-08-16T12:25:38.599Z,23.16
2022-08-16T12:28:15.202Z,23.09
2022-08-16T12:30:58.829Z,22.58
2022-08-16T12:33:33.098Z,21.98
2022-08-16T12:36:17.846Z,21.10
2022-08-16T12:38:49.974Z,20.94
2022-08-16T12:41:27.786Z,21.15
2022-08-16T12:44:03.470Z,20.98
2022-08-16T12:46:37.478Z,20.74
2022-08-16T12:49:12.503Z,20.29
2022-08-16T12:51:59.764Z,19.94
2022-08-16T12:54:33.981Z,20.07
2022-08-16T12:57:13.992Z,19.60
2022-08-16T13:06:52.381Z,19.53
2022-08-16T13:09:26.199Z,18.95
2022-08-16T13:12:05.686Z,18.69
2022-08-16T13:14:40.014Z,18.51
2022-08-16T13:17:18.947Z,18.26
2022-08-16T13:20:09.485Z,18.02
2022-08-16T13:22:44.739Z,17.89
2022-08-16T13:25:21.400Z,17.56
2022-08-16T13:28:02.280Z,17.15
2022-08-16T13:30:41.203Z,16.69
2022-08-16T13:33:16.973Z,16.63
2022-08-16T13:35:55.413Z,16.97
2022-08-16T13:38:31.532Z,16.67
2022-08-16T13:41:09.158Z,16.87
2022-08-16T13:43:42.181Z,16.84
2022-08-16T13:46:12.955Z,16.82
2022-08-16T13:48:43.996Z,16.51
2022-08-16T13:51:19.013Z,16.28
2022-08-16T13:53:59.049Z,16.11
2022-08-16T13:56:37.692Z,16.03
2022-08-16T13:59:19.357Z,15.81
2022-08-16T14:01:55.258Z,15.77
2022-08-16T14:04:28.013Z,15.45
2022-08-16T14:07:00.089Z,15.42
2022-08-16T14:09:32.208Z,15.45
2022-08-16T14:12:09.819Z,15.39
2022-08-16T14:14:48.551Z,15.20
2022-08-16T14:17:23.121Z,14.75
2022-08-16T14:19:54.340Z,15.10
2022-08-16T14:22:35.588Z,14.92
2022-08-16T14:25:18.978Z,14.94
2022-08-16T14:27:54.290Z,15.03
2022-08-16T14:30:26.115Z,15.14
2022-08-16T14:32:58.036Z,14.72
2022-08-16T14:35:48.591Z,14.72
2022-08-16T14:38:23.966Z,14.96
2022-08-16T14:40:55.742Z,14.55
2022-08-16T14:43:29.778Z,14.15
2022-08-16T14:46:01.969Z,14.32
2022-08-16T14:48:38.093Z,14.33
2022-08-16T14:51:09.647Z,14.04
2022-08-16T14:53:45.339Z,14.16
2022-08-16T14:56:38.097Z,13.88
2022-08-16T14:59:07.105Z,13.90
2022-08-16T15:01:57.989Z,13.75
2022-08-16T15:04:47.675Z,14.75
2022-08-16T15:07:21.623Z,16.12
2022-08-16T15:10:00.604Z,17.32
2022-08-16T15:12:36.058Z,18.87
2022-08-16T15:15:16.453Z,20.07
2022-08-16T15:17:56.787Z,21.34
2022-08-16T15:20:30.378Z,22.34
2022-08-16T15:23:02.640Z,23.22
2022-08-16T15:25:35.996Z,24.10
2022-08-16T15:28:30.731Z,25.11
2022-08-16T15:31:04.589Z,25.66
2022-08-16T15:33:43.600Z,26.22
2022-08-16T15:36:18.192Z,26.57
2022-08-16T15:39:02.534Z,27.22
2022-08-16T15:42:05.432Z,27.67
2022-08-16T15:44:51.938Z,28.34
2022-08-16T15:47:27.170Z,28.71
2022-08-16T15:49:58.413Z,28.66
2022-08-16T15:52:31.088Z,28.94
2022-08-16T15:55:13.321Z,29.04
2022-08-16T15:57:55.221Z,29.28
2022-08-16T16:00:26.725Z,29.12
2022-08-16T16:03:08.646Z,29.21
2022-08-16T16:05:40.288Z,29.00
2022-08-16T16:08:13.496Z,28.04
2022-08-16T16:10:54.588Z,27.46
2022-08-16T16:13:25.431Z,27.26
2022-08-16T16:15:58.971Z,26.98
2022-08-16T16:18:29.977Z,26.89
2022-08-16T16:21:02.998Z,26.49
2022-08-16T16:23:35.573Z,26.61
2022-08-16T16:26:12.584Z,26.30
2022-08-16T16:29:05.169Z,26.22
2022-08-16T16:31:36.197Z,26.09
2022-08-16T16:34:07.578Z,26.13
2022-08-16T16:36:48.302Z,26.21
2022-08-16T16:39:19.288Z,26.14
2022-08-16T16:41:49.932Z,26.25
2022-08-16T16:44:31.775Z,26.22
2022-08-16T16:47:04.498Z,26.50
2022-08-16T16:49:35.412Z,26.58
2022-08-16T16:52:43.358Z,26.95
2022-08-16T16:55:08.531Z,27.55
2022-08-16T16:57:56.803Z,27.96
2022-08-16T17:00:37.488Z,28.18
2022-08-16T17:03:17.028Z,28.23
2022-08-16T17:05:54.244Z,28.68
2022-08-16T17:08:30.905Z,29.25
2022-08-16T17:11:01.712Z,29.64
2022-08-16T17:13:32.777Z,29.85
2022-08-16T17:16:03.483Z,30.14
2022-08-16T17:19:15.098Z,30.52
2022-08-16T17:21:25.046Z,31.00
2022-08-16T17:23:58.109Z,31.23
2022-08-16T17:26:31.779Z,31.68
2022-08-16T17:29:11.285Z,31.98
2022-08-16T17:31:43.503Z,32.41
2022-08-16T17:34:28.595Z,32.81
2022-08-16T17:37:04.957Z,33.18
2022-08-16T17:39:58.183Z,33.52
2022-08-16T17:42:27.755Z,33.88
2022-08-16T17:44:58.250Z,34.26
2022-08-16T17:47:28.807Z,34.43
2022-08-16T17:49:59.240Z,34.72
2022-08-16T17:52:30.056Z,34.84
2022-08-16T17:55:04.282Z,34.97
2022-08-16T17:57:35.093Z,35.30
2022-08-16T18:00:09.275Z,35.47
2022-08-16T18:02:44.759Z,35.66
2022-08-16T18:05:16.221Z,35.90
2022-08-16T18:07:47.357Z,36.13
2022-08-16T18:10:33.428Z,36.35
2022-08-16T18:13:07.804Z,36.53
2022-08-16T18:15:40.087Z,36.66
2022-08-16T18:18:10.809Z,36.78
2022-08-16T18:20:58.628Z,36.95
2022-08-16T18:23:29.300Z,37.18
2022-08-16T18:26:01.607Z,37.32
2022-08-16T18:28:30.769Z,37.53
2022-08-16T18:31:05.312Z,37.67
2022-08-16T18:33:43.756Z,37.70
2022-08-16T18:36:19.886Z,37.96
2022-08-16T18:38:52.656Z,38.24
2022-08-16T18:41:24.509Z,38.38
2022-08-16T18:44:26.272Z,38.54
2022-08-16T18:46:48.850Z,38.90
2022-08-16T18:49:21.996Z,38.98
2022-08-16T18:51:52.366Z,39.13
2022-08-16T18:54:24.449Z,39.26
2022-08-16T18:56:57.331Z,39.40
2022-08-16T18:59:30.878Z,39.61
2022-08-16T19:02:04.403Z,39.70
2022-08-16T19:04:55.916Z,39.86
2022-08-16T19:07:30.589Z,40.23
2022-08-16T19:10:02.676Z,40.33
2022-08-16T19:12:37.781Z,40.58
2022-08-16T19:15:15.726Z,40.71
2022-08-16T19:17:47.003Z,40.99
2022-08-16T19:20:19.507Z,41.25
2022-08-16T19:23:05.792Z,41.57
2022-08-16T19:25:47.109Z,41.68
2022-08-16T19:28:50.682Z,42.02
2022-08-16T19:31:12.438Z,42.17
2022-08-16T19:33:47.269Z,42.36
2022-08-16T19:36:31.155Z,42.53
2022-08-16T19:39:05.579Z,42.89
2022-08-16T19:41:37.888Z,43.04
2022-08-16T19:44:08.982Z,42.89
2022-08-16T19:46:41.661Z,43.19
2022-08-16T19:49:16.306Z,43.51
2022-08-16T19:51:47.474Z,43.66
2022-08-16T19:54:18.292Z,43.76
2022-08-16T19:56:48.858Z,43.70
2022-08-16T19:59:22.179Z,43.92
2022-08-16T20:01:53.328Z,44.11
2022-08-16T20:04:25.807Z,44.12
2022-08-16T20:06:55.191Z,44.24
2022-08-16T20:09:26.652Z,44.29
2022-08-16T20:11:59.148Z,44.28
2022-08-16T20:14:28.120Z,44.29
2022-08-16T20:17:00.338Z,44.38
2022-08-16T20:19:37.027Z,44.47
2022-08-16T20:22:42.089Z,44.54
2022-08-16T20:25:15.104Z,44.44
2022-08-16T20:27:45.467Z,44.53
2022-08-16T20:30:17.353Z,44.68
2022-08-16T20:32:48.818Z,44.57
2022-08-16T20:35:22.680Z,44.58
2022-08-16T20:37:53.250Z,44.72
2022-08-16T20:40:33.931Z,44.86
2022-08-16T20:43:08.379Z,44.86
2022-08-16T20:45:40.526Z,44.87
2022-08-16T20:48:10.937Z,44.85
2022-08-16T20:50:41.910Z,45.06
2022-08-16T20:53:12.543Z,45.08
2022-08-16T20:55:44.663Z,44.96
2022-08-16T20:58:15.588Z,44.99
2022-08-16T21:00:47.251Z,45.12
2022-08-16T21:03:17.721Z,45.15
2022-08-16T21:05:48.056Z,45.29
2022-08-16T21:08:50.844Z,45.31
2022-08-16T21:11:09.469Z,45.44
2022-08-16T21:13:42.925Z,45.52
2022-08-16T21:16:16.424Z,45.48
2022-08-16T21:18:46.768Z,45.60
2022-08-16T21:21:17.536Z,45.47
2022-08-16T21:23:47.943Z,45.51
2022-08-16T21:26:18.322Z,45.76
2022-08-16T21:28:48.640Z,45.48
2022-08-16T21:31:19.814Z,45.68
2022-08-16T21:33:54.884Z,45.67
2022-08-16T21:36:35.977Z,45.73
2022-08-16T21:39:07.919Z,45.54
2022-08-16T21:41:39.069Z,45.69
2022-08-16T21:44:09.952Z,45.94
2022-08-16T21:46:40.259Z,45.79
2022-08-16T21:49:10.573Z,46.01
2022-08-16T21:51:41.040Z,46.11
2022-08-16T21:54:11.486Z,46.06
2022-08-16T21:56:41.844Z,46.16
2022-08-16T21:59:30.136Z,46.17
2022-08-16T22:02:00.845Z,46.23
2022-08-16T22:04:38.283Z,46.31
2022-08-16T22:07:19.056Z,46.41
2022-08-16T22:09:56.323Z,46.64
2022-08-16T22:12:29.267Z,46.57
2022-08-16T22:14:59.596Z,46.65
2022-08-16T22:17:29.985Z,46.79
2022-08-16T22:20:00.329Z,46.83
2022-08-16T22:22:36.097Z,46.63
2022-08-16T22:25:07.339Z,46.83
2022-08-16T22:27:38.105Z,46.76
2022-08-16T22:30:10.681Z,46.76
2022-08-16T22:32:41.890Z,46.77
2022-08-16T22:35:14.331Z,46.65
2022-08-16T22:38:47.854Z,46.64
2022-08-16T22:40:35.174Z,46.86
2022-08-16T22:43:05.545Z,46.75
2022-08-16T22:45:36.976Z,46.81
2022-08-16T22:48:07.928Z,46.68
2022-08-16T22:50:38.750Z,46.66
2022-08-16T22:53:09.938Z,46.86
2022-08-16T22:55:41.552Z,46.64
2022-08-16T22:58:13.789Z,46.67
2022-08-16T23:00:45.073Z,46.73
2022-08-16T23:03:17.285Z,46.52
2022-08-16T23:05:50.437Z,46.50
2022-08-16T23:08:38.613Z,46.53
2022-08-16T23:11:12.046Z,46.48
2022-08-16T23:13:53.241Z,46.53
2022-08-16T23:16:32.411Z,46.55
2022-08-16T23:19:04.972Z,46.81
2022-08-16T23:21:37.087Z,46.69
2022-08-16T23:24:09.171Z,46.69
2022-08-16T23:26:46.654Z,46.89
2022-08-16T23:29:23.820Z,46.71
2022-08-16T23:31:56.982Z,46.58
2022-08-16T23:34:28.732Z,46.61
2022-08-16T23:36:59.237Z,46.46
2022-08-16T23:39:29.698Z,46.51
2022-08-16T23:42:00.717Z,46.54
2022-08-16T23:44:42.179Z,46.52
2022-08-16T23:47:22.034Z,46.39
2022-08-16T23:50:02.458Z,46.75
2022-08-16T23:52:45.286Z,46.71
2022-08-16T23:55:25.318Z,46.83
2022-08-16T23:57:55.743Z,46.77
